createdAt,value
2018-01-22T00:00:53.573Z,0.00
2018-01-22T00:01:53.589Z,0.00
2018-01-22T00:02:53.603Z,0.00
2018-01-22T00:03:53.611Z,0.00
2018-01-22T00:04:53.625Z,0.00
2018-01-22T00:05:53.637Z,0.00
2018-01-22T00:06:53.648Z,0.00
2018-01-22T00:07:53.659Z,0.00
2018-01-22T00:08:53.672Z,0.00
2018-01-22T00:09:53.741Z,0.00
2018-01-22T00:10:53.696Z,0.00
2018-01-22T00:11:53.712Z,0.00
2018-01-22T00:12:53.724Z,0.00
2018-01-22T00:13:53.737Z,0.00
2018-01-22T00:14:53.756Z,0.00
2018-01-22T00:15:53.760Z,0.00
2018-01-22T00:16:53.772Z,0.00
2018-01-22T00:17:53.785Z,0.00
2018-01-22T00:18:53.799Z,0.00
2018-01-22T00:19:53.810Z,0.00
2018-01-22T00:20:53.823Z,0.00
2018-01-22T00:21:53.832Z,0.00
2018-01-22T00:22:53.849Z,0.00
2018-01-22T00:23:53.863Z,0.00
2018-01-22T00:24:53.873Z,0.00
2018-01-22T00:25:53.887Z,0.00
2018-01-22T00:26:53.909Z,0.00
2018-01-22T00:27:53.911Z,0.00
2018-01-22T00:28:53.958Z,0.00
2018-01-22T00:29:53.936Z,0.00
2018-01-22T00:30:53.948Z,0.00
2018-01-22T00:31:53.962Z,0.00
2018-01-22T00:32:53.973Z,0.00
2018-01-22T00:33:53.985Z,0.00
2018-01-22T00:34:54.000Z,0.00
2018-01-22T00:35:54.008Z,0.00
2018-01-22T00:36:54.022Z,0.00
2018-01-22T00:37:54.035Z,0.00
2018-01-22T00:38:54.045Z,0.00
2018-01-22T00:39:54.060Z,0.00
2018-01-22T00:40:54.074Z,0.00
2018-01-22T00:41:54.083Z,0.00
2018-01-22T00:42:54.097Z,0.00
2018-01-22T00:43:54.109Z,0.00
2018-01-22T00:44:54.122Z,0.00
2018-01-22T00:45:54.146Z,0.00
2018-01-22T00:46:54.164Z,0.00
2018-01-22T00:47:54.160Z,0.00
2018-01-22T00:48:54.180Z,0.00
2018-01-22T00:49:54.186Z,0.00
2018-01-22T00:50:54.197Z,0.00
2018-01-22T00:51:54.210Z,0.00
2018-01-22T00:52:54.221Z,0.00
2018-01-22T00:53:54.237Z,0.00
2018-01-22T00:54:54.253Z,0.00
2018-01-22T00:55:54.260Z,0.00
2018-01-22T00:56:54.275Z,0.00
2018-01-22T00:57:54.286Z,0.00
2018-01-22T00:58:54.301Z,0.00
2018-01-22T00:59:54.320Z,0.00
2018-01-22T01:00:54.325Z,0.00
2018-01-22T01:01:54.343Z,0.00
2018-01-22T01:02:54.349Z,0.00
2018-01-22T01:03:54.369Z,0.00
2018-01-22T01:04:54.373Z,0.00
2018-01-22T01:05:54.454Z,0.00
2018-01-22T01:06:54.399Z,0.00
2018-01-22T01:07:54.414Z,0.00
2018-01-22T01:08:54.431Z,0.00
2018-01-22T01:09:54.440Z,0.00
2018-01-22T01:10:54.451Z,0.00
2018-01-22T01:11:54.458Z,0.00
2018-01-22T01:12:54.475Z,0.00
2018-01-22T01:13:54.488Z,0.00
2018-01-22T01:14:54.501Z,0.00
2018-01-22T01:15:54.512Z,0.00
2018-01-22T01:16:54.524Z,0.00
2018-01-22T01:17:54.549Z,0.00
2018-01-22T01:18:54.550Z,0.00
2018-01-22T01:19:54.562Z,0.00
2018-01-22T01:20:54.573Z,0.00
2018-01-22T01:21:54.588Z,0.00
2018-01-22T01:22:54.612Z,0.00
2018-01-22T01:23:54.614Z,0.00
2018-01-22T01:24:54.623Z,0.00
2018-01-22T01:25:54.640Z,0.00
2018-01-22T01:26:54.651Z,0.00
2018-01-22T01:27:54.665Z,0.00
2018-01-22T01:28:54.674Z,0.00
2018-01-22T01:29:54.687Z,0.00
2018-01-22T01:30:54.699Z,0.00
2018-01-22T01:31:54.716Z,0.00
2018-01-22T01:32:54.724Z,0.00
2018-01-22T01:33:54.736Z,0.00
2018-01-22T01:34:54.750Z,0.00
2018-01-22T01:35:54.762Z,0.00
2018-01-22T01:36:54.821Z,0.00
2018-01-22T01:37:54.787Z,0.00
2018-01-22T01:38:54.801Z,0.00
2018-01-22T01:39:54.811Z,0.00
2018-01-22T01:40:54.826Z,0.00
2018-01-22T01:41:54.836Z,0.00
2018-01-22T01:42:54.848Z,0.00
2018-01-22T01:43:54.862Z,0.00
2018-01-22T01:44:54.873Z,0.00
2018-01-22T01:45:54.887Z,0.00
2018-01-22T01:46:54.899Z,0.00
2018-01-22T01:47:54.912Z,0.00
2018-01-22T01:48:54.924Z,0.00
2018-01-22T01:49:54.938Z,0.00
2018-01-22T01:50:54.949Z,0.00
2018-01-22T01:51:54.963Z,0.00
2018-01-22T01:52:54.984Z,0.00
2018-01-22T01:53:54.988Z,0.00
2018-01-22T01:54:55.145Z,0.00
2018-01-22T01:55:55.014Z,0.00
2018-01-22T01:56:55.024Z,0.00
2018-01-22T01:57:55.037Z,0.00
2018-01-22T01:58:55.051Z,0.00
2018-01-22T01:59:55.067Z,0.00
2018-01-22T02:00:55.073Z,0.00
2018-01-22T02:01:55.084Z,0.00
2018-01-22T02:02:55.100Z,0.00
2018-01-22T02:03:55.109Z,0.00
2018-01-22T02:04:55.124Z,0.00
2018-01-22T02:05:55.136Z,0.00
2018-01-22T02:06:55.153Z,0.00
2018-01-22T02:07:55.163Z,0.00
2018-01-22T02:08:55.175Z,0.00
2018-01-22T02:09:55.188Z,0.00
2018-01-22T02:10:55.199Z,0.00
2018-01-22T02:11:55.211Z,0.00
2018-01-22T02:12:55.225Z,0.00
2018-01-22T02:13:55.234Z,0.00
2018-01-22T02:14:55.252Z,0.00
2018-01-22T02:15:55.262Z,0.00
2018-01-22T02:16:55.275Z,0.00
2018-01-22T02:17:55.285Z,0.00
2018-01-22T02:18:55.301Z,0.00
2018-01-22T02:19:55.309Z,0.00
2018-01-22T02:20:55.329Z,0.00
2018-01-22T02:21:55.334Z,0.00
2018-01-22T02:22:55.348Z,0.00
2018-01-22T02:23:55.363Z,0.00
2018-01-22T02:24:55.372Z,0.00
2018-01-22T02:25:55.387Z,0.00
2018-01-22T02:26:55.397Z,0.00
2018-01-22T02:27:55.407Z,0.00
2018-01-22T02:28:55.422Z,0.00
2018-01-22T02:29:55.442Z,0.00
2018-01-22T02:30:55.456Z,0.00
2018-01-22T02:31:55.458Z,0.00
2018-01-22T02:32:55.473Z,0.00
2018-01-22T02:33:55.488Z,0.00
2018-01-22T02:34:55.498Z,0.00
2018-01-22T02:35:55.506Z,0.00
2018-01-22T02:36:55.520Z,0.00
2018-01-22T02:37:55.530Z,0.00
2018-01-22T02:38:55.545Z,0.00
2018-01-22T02:39:55.556Z,0.00
2018-01-22T02:40:55.568Z,0.00
2018-01-22T02:41:55.578Z,0.00
2018-01-22T02:42:55.595Z,0.00
2018-01-22T02:43:55.604Z,0.00
2018-01-22T02:44:55.619Z,0.00
2018-01-22T02:45:55.628Z,0.00
2018-01-22T02:46:55.642Z,0.00
2018-01-22T02:47:55.655Z,0.00
2018-01-22T02:48:55.665Z,0.00
2018-01-22T02:49:55.677Z,0.00
2018-01-22T02:50:55.690Z,0.00
2018-01-22T02:51:55.700Z,0.00
2018-01-22T02:52:55.715Z,0.00
2018-01-22T02:53:55.727Z,0.00
2018-01-22T02:54:55.740Z,0.00
2018-01-22T02:55:55.748Z,0.00
2018-01-22T02:56:55.765Z,0.00
2018-01-22T02:57:55.777Z,0.00
2018-01-22T02:58:55.788Z,0.00
2018-01-22T02:59:55.799Z,0.00
2018-01-22T03:00:55.838Z,0.00
2018-01-22T03:01:55.826Z,0.00
2018-01-22T03:02:55.836Z,0.00
2018-01-22T03:03:55.849Z,0.00
2018-01-22T03:04:55.862Z,0.00
2018-01-22T03:05:55.871Z,0.00
2018-01-22T03:06:55.888Z,0.00
2018-01-22T03:07:55.894Z,0.00
2018-01-22T03:08:55.907Z,0.00
2018-01-22T03:09:55.921Z,0.00
2018-01-22T03:10:55.936Z,0.00
2018-01-22T03:11:55.945Z,0.00
2018-01-22T03:12:55.957Z,0.00
2018-01-22T03:13:55.973Z,0.00
2018-01-22T03:14:55.983Z,0.00
2018-01-22T03:15:55.992Z,0.00
2018-01-22T03:16:56.013Z,0.00
2018-01-22T03:17:56.017Z,0.00
2018-01-22T03:18:56.029Z,0.00
2018-01-22T03:19:56.041Z,0.00
2018-01-22T03:20:56.052Z,0.00
2018-01-22T03:21:56.066Z,0.00
2018-01-22T03:22:56.078Z,0.00
2018-01-22T03:23:56.088Z,0.00
2018-01-22T03:24:56.116Z,0.00
2018-01-22T03:25:56.112Z,0.00
2018-01-22T03:26:56.124Z,0.00
2018-01-22T03:27:56.138Z,0.00
2018-01-22T03:28:56.150Z,0.00
2018-01-22T03:29:56.165Z,0.00
2018-01-22T03:30:56.176Z,0.00
2018-01-22T03:31:56.186Z,0.00
2018-01-22T03:32:56.202Z,0.00
2018-01-22T03:33:56.212Z,0.00
2018-01-22T03:34:56.224Z,0.00
2018-01-22T03:35:56.233Z,0.00
2018-01-22T03:36:56.246Z,0.00
2018-01-22T03:37:56.259Z,0.00
2018-01-22T03:38:56.272Z,0.00
2018-01-22T03:39:56.282Z,0.00
2018-01-22T03:40:56.297Z,0.00
2018-01-22T03:41:56.320Z,0.00
2018-01-22T03:42:56.321Z,0.00
2018-01-22T03:43:56.352Z,0.00
2018-01-22T03:44:56.351Z,0.00
2018-01-22T03:45:56.354Z,0.00
2018-01-22T03:46:56.369Z,0.00
2018-01-22T03:47:56.505Z,0.00
2018-01-22T03:48:56.396Z,0.00
2018-01-22T03:49:56.405Z,0.00
2018-01-22T03:50:56.416Z,0.00
2018-01-22T03:51:56.427Z,0.00
2018-01-22T03:52:56.441Z,0.00
2018-01-22T03:53:56.451Z,0.00
2018-01-22T03:54:56.465Z,0.00
2018-01-22T03:55:56.476Z,0.00
2018-01-22T03:56:56.488Z,0.00
2018-01-22T03:57:56.500Z,0.00
2018-01-22T03:58:56.514Z,0.00
2018-01-22T03:59:56.526Z,0.00
2018-01-22T04:00:56.534Z,0.00
2018-01-22T04:01:56.566Z,0.00
2018-01-22T04:02:56.559Z,0.00
2018-01-22T04:03:56.577Z,0.00
2018-01-22T04:04:56.584Z,0.00
2018-01-22T04:05:56.593Z,0.00
2018-01-22T04:06:56.609Z,0.00
2018-01-22T04:07:56.618Z,0.00
2018-01-22T04:08:56.632Z,0.00
2018-01-22T04:09:56.648Z,0.00
2018-01-22T04:10:56.656Z,0.00
2018-01-22T04:11:56.667Z,0.00
2018-01-22T04:12:56.678Z,0.00
2018-01-22T04:13:56.692Z,0.00
2018-01-22T04:14:56.703Z,0.00
2018-01-22T04:15:56.714Z,0.00
2018-01-22T04:16:56.726Z,0.00
2018-01-22T04:17:56.738Z,0.00
2018-01-22T04:18:56.750Z,0.00
2018-01-22T04:19:56.762Z,0.00
2018-01-22T04:20:56.774Z,0.00
2018-01-22T04:21:56.787Z,0.00
2018-01-22T04:22:56.799Z,0.00
2018-01-22T04:23:56.809Z,0.00
2018-01-22T04:24:56.835Z,0.00
2018-01-22T04:25:56.843Z,0.00
2018-01-22T04:26:56.846Z,0.00
2018-01-22T04:27:56.858Z,0.00
2018-01-22T04:28:56.871Z,0.00
2018-01-22T04:29:56.883Z,0.00
2018-01-22T04:30:56.910Z,0.00
2018-01-22T04:31:56.906Z,0.00
2018-01-22T04:32:56.922Z,0.00
2018-01-22T04:33:56.931Z,0.00
2018-01-22T04:34:56.941Z,0.00
2018-01-22T04:35:56.957Z,0.00
2018-01-22T04:36:56.967Z,0.00
2018-01-22T04:37:56.978Z,0.00
2018-01-22T04:38:56.997Z,0.00
2018-01-22T04:39:57.004Z,0.00
2018-01-22T04:40:57.017Z,0.00
2018-01-22T04:41:57.028Z,0.00
2018-01-22T04:42:57.045Z,0.00
2018-01-22T04:43:57.052Z,0.00
2018-01-22T04:44:57.062Z,0.00
2018-01-22T04:45:57.075Z,0.00
2018-01-22T04:46:57.089Z,0.00
2018-01-22T04:47:57.098Z,0.00
2018-01-22T04:48:57.109Z,0.00
2018-01-22T04:49:57.121Z,0.00
2018-01-22T04:50:57.137Z,0.00
2018-01-22T04:51:57.148Z,0.00
2018-01-22T04:52:57.158Z,0.00
2018-01-22T04:53:57.174Z,0.00
2018-01-22T04:54:57.184Z,0.00
2018-01-22T04:55:57.195Z,0.00
2018-01-22T04:56:57.209Z,0.00
2018-01-22T04:57:57.220Z,0.00
2018-01-22T04:58:57.230Z,0.00
2018-01-22T04:59:57.242Z,0.00
2018-01-22T05:00:57.257Z,0.00
2018-01-22T05:01:57.270Z,0.00
2018-01-22T05:02:57.277Z,0.00
2018-01-22T05:03:57.298Z,0.00
2018-01-22T05:04:57.302Z,0.00
2018-01-22T05:05:57.316Z,0.00
2018-01-22T05:06:57.328Z,0.00
2018-01-22T05:07:57.337Z,0.00
2018-01-22T05:08:57.352Z,0.00
2018-01-22T05:09:57.364Z,0.00
2018-01-22T05:10:57.376Z,0.00
2018-01-22T05:11:57.388Z,0.00
2018-01-22T05:12:57.398Z,0.00
2018-01-22T05:13:57.413Z,0.00
2018-01-22T05:14:57.424Z,0.00
2018-01-22T05:15:57.453Z,0.00
2018-01-22T05:16:57.449Z,0.00
2018-01-22T05:17:57.460Z,0.00
2018-01-22T05:18:57.474Z,0.00
2018-01-22T05:19:57.484Z,0.00
2018-01-22T05:20:57.495Z,0.00
2018-01-22T05:21:57.509Z,0.00
2018-01-22T05:22:57.521Z,0.00
2018-01-22T05:23:57.541Z,0.00
2018-01-22T05:24:57.546Z,0.00
2018-01-22T05:25:57.557Z,0.00
2018-01-22T05:26:57.569Z,0.00
2018-01-22T05:27:57.579Z,0.00
2018-01-22T05:28:57.595Z,0.00
2018-01-22T05:29:57.604Z,0.00
2018-01-22T05:30:57.616Z,0.00
2018-01-22T05:31:57.637Z,0.00
2018-01-22T05:32:57.639Z,0.00
2018-01-22T05:33:57.652Z,0.00
2018-01-22T05:34:57.671Z,0.00
2018-01-22T05:35:57.675Z,0.00
2018-01-22T05:36:57.689Z,0.00
2018-01-22T05:37:57.700Z,0.00
2018-01-22T05:38:57.713Z,0.00
2018-01-22T05:39:57.725Z,0.00
2018-01-22T05:40:57.780Z,0.00
2018-01-22T05:41:57.750Z,0.00
2018-01-22T05:42:57.767Z,0.00
2018-01-22T05:43:57.774Z,0.00
2018-01-22T05:44:57.785Z,0.00
2018-01-22T05:45:57.800Z,0.00
2018-01-22T05:46:57.809Z,0.00
2018-01-22T05:47:57.823Z,0.00
2018-01-22T05:48:57.835Z,0.00
2018-01-22T05:49:57.846Z,0.00
2018-01-22T05:50:57.859Z,0.00
2018-01-22T05:51:57.869Z,0.00
2018-01-22T05:52:57.884Z,0.00
2018-01-22T05:53:57.901Z,0.00
2018-01-22T05:54:57.909Z,0.00
2018-01-22T05:55:57.923Z,0.00
2018-01-22T05:56:57.931Z,0.00
2018-01-22T05:57:57.941Z,0.00
2018-01-22T05:58:57.957Z,0.00
2018-01-22T05:59:57.967Z,0.00
2018-01-22T06:00:57.978Z,0.00
2018-01-22T06:01:57.991Z,0.00
2018-01-22T06:02:58.002Z,0.00
2018-01-22T06:03:58.015Z,0.00
2018-01-22T06:04:58.027Z,0.00
2018-01-22T06:05:58.038Z,0.00
2018-01-22T06:06:58.055Z,0.00
2018-01-22T06:07:58.063Z,0.00
2018-01-22T06:08:58.075Z,0.00
2018-01-22T06:09:58.136Z,0.00
2018-01-22T06:10:58.099Z,0.00
2018-01-22T06:11:58.116Z,4.00
2018-01-22T06:12:58.122Z,0.00
2018-01-22T06:13:58.135Z,0.00
2018-01-22T06:14:58.147Z,0.00
2018-01-22T06:15:58.217Z,0.00
2018-01-22T06:16:58.170Z,0.00
2018-01-22T06:17:58.243Z,0.00
2018-01-22T06:18:58.197Z,0.00
2018-01-22T06:19:58.209Z,0.00
2018-01-22T06:20:58.217Z,0.00
2018-01-22T06:21:58.235Z,0.00
2018-01-22T06:22:58.243Z,0.00
2018-01-22T06:23:58.253Z,0.00
2018-01-22T06:24:58.269Z,0.00
2018-01-22T06:25:58.287Z,0.00
2018-01-22T06:26:58.292Z,0.00
2018-01-22T06:27:58.315Z,0.00
2018-01-22T06:28:58.313Z,0.00
2018-01-22T06:29:58.326Z,0.00
2018-01-22T06:30:58.339Z,0.00
2018-01-22T06:31:58.360Z,0.00
2018-01-22T06:32:58.362Z,0.00
2018-01-22T06:33:58.374Z,0.00
2018-01-22T06:34:58.390Z,0.00
2018-01-22T06:35:58.398Z,0.00
2018-01-22T06:36:58.409Z,0.00
2018-01-22T06:37:58.424Z,4.00
2018-01-22T06:38:58.433Z,4.00
2018-01-22T06:39:58.444Z,4.00
2018-01-22T06:40:58.458Z,4.00
2018-01-22T06:41:58.469Z,4.00
2018-01-22T06:42:58.483Z,0.00
2018-01-22T06:43:58.494Z,0.00
2018-01-22T06:44:58.510Z,4.00
2018-01-22T06:45:58.519Z,4.00
2018-01-22T06:46:58.530Z,4.00
2018-01-22T06:47:58.540Z,4.00
2018-01-22T06:48:58.553Z,4.00
2018-01-22T06:49:58.571Z,8.00
2018-01-22T06:50:58.609Z,8.00
2018-01-22T06:51:58.588Z,8.00
2018-01-22T06:52:58.601Z,8.00
2018-01-22T06:53:58.610Z,12.00
2018-01-22T06:54:58.624Z,12.00
2018-01-22T06:55:58.634Z,12.00
2018-01-22T06:56:58.647Z,12.00
2018-01-22T06:57:58.662Z,16.00
2018-01-22T06:58:58.673Z,16.00
2018-01-22T06:59:58.683Z,20.00
2018-01-22T07:00:58.695Z,20.00
2018-01-22T07:01:58.708Z,20.00
2018-01-22T07:02:58.721Z,20.00
2018-01-22T07:03:58.733Z,24.00
2018-01-22T07:04:58.741Z,32.00
2018-01-22T07:05:58.796Z,32.00
2018-01-22T07:06:58.765Z,36.00
2018-01-22T07:07:58.778Z,40.00
2018-01-22T07:08:58.789Z,44.00
2018-01-22T07:09:58.800Z,52.00
2018-01-22T07:10:58.816Z,56.00
2018-01-22T07:11:58.827Z,64.00
2018-01-22T07:12:58.838Z,64.00
2018-01-22T07:13:58.848Z,68.00
2018-01-22T07:14:58.869Z,72.00
2018-01-22T07:15:58.872Z,76.00
2018-01-22T07:16:58.885Z,88.00
2018-01-22T07:17:58.900Z,88.00
2018-01-22T07:18:58.909Z,96.00
2018-01-22T07:19:58.918Z,108.00
2018-01-22T07:20:58.934Z,112.00
2018-01-22T07:21:58.942Z,124.00
2018-01-22T07:22:58.956Z,128.00
2018-01-22T07:23:58.968Z,148.00
2018-01-22T07:24:58.981Z,164.00
2018-01-22T07:25:58.993Z,196.00
2018-01-22T07:26:59.003Z,216.00
2018-01-22T07:27:59.022Z,240.00
2018-01-22T07:28:59.027Z,260.00
2018-01-22T07:29:59.039Z,228.00
2018-01-22T07:30:59.050Z,240.00
2018-01-22T07:31:59.058Z,268.00
2018-01-22T07:32:59.073Z,276.00
2018-01-22T07:33:59.083Z,292.00
2018-01-22T07:34:59.102Z,336.00
2018-01-22T07:35:59.108Z,352.00
2018-01-22T07:36:59.120Z,392.00
2018-01-22T07:37:59.133Z,372.00
2018-01-22T07:38:59.145Z,364.00
2018-01-22T07:39:59.154Z,364.00
2018-01-22T07:40:59.209Z,368.00
2018-01-22T07:41:59.179Z,372.00
2018-01-22T07:42:59.196Z,364.00
2018-01-22T07:43:59.204Z,400.00
2018-01-22T07:44:59.213Z,408.00
2018-01-22T07:45:59.225Z,400.00
2018-01-22T07:46:59.239Z,420.00
2018-01-22T07:47:59.279Z,404.00
2018-01-22T07:48:59.266Z,380.00
2018-01-22T07:49:59.275Z,380.00
2018-01-22T07:50:59.288Z,404.00
2018-01-22T07:51:59.297Z,396.00
2018-01-22T07:52:59.311Z,388.00
2018-01-22T07:53:59.344Z,424.00
2018-01-22T07:54:59.335Z,432.00
2018-01-22T07:55:59.347Z,472.00
2018-01-22T07:56:59.359Z,508.00
2018-01-22T07:57:59.370Z,576.00
2018-01-22T07:58:59.384Z,604.00
2018-01-22T07:59:59.397Z,660.00
2018-01-22T08:00:59.403Z,592.00
2018-01-22T08:01:59.418Z,560.00
2018-01-22T08:02:59.431Z,564.00
2018-01-22T08:03:59.441Z,556.00
2018-01-22T08:04:59.458Z,564.00
2018-01-22T08:05:59.468Z,620.00
2018-01-22T08:06:59.482Z,716.00
2018-01-22T08:08:00.468Z,768.00
2018-01-22T08:08:59.502Z,800.00
2018-01-22T08:09:59.513Z,920.00
2018-01-22T08:10:59.526Z,912.00
2018-01-22T08:11:59.540Z,992.00
2018-01-22T08:12:59.552Z,1128.00
2018-01-22T08:13:59.727Z,1160.00
2018-01-22T08:14:59.581Z,1180.00
2018-01-22T08:15:59.593Z,1460.00
2018-01-22T08:16:59.606Z,1508.00
2018-01-22T08:17:59.615Z,1424.00
2018-01-22T08:18:59.626Z,1396.00
2018-01-22T08:19:59.637Z,1492.00
2018-01-22T08:20:59.648Z,1432.00
2018-01-22T08:21:59.661Z,1348.00
2018-01-22T08:22:59.673Z,1396.00
2018-01-22T08:23:59.686Z,1360.00
2018-01-22T08:24:59.708Z,1440.00
2018-01-22T08:25:59.710Z,1348.00
2018-01-22T08:26:59.722Z,1408.00
2018-01-22T08:27:59.734Z,1524.00
2018-01-22T08:28:59.745Z,1604.00
2018-01-22T08:29:59.758Z,1492.00
2018-01-22T08:30:59.769Z,1364.00
2018-01-22T08:31:59.781Z,1296.00
2018-01-22T08:32:59.797Z,1068.00
2018-01-22T08:33:59.808Z,1028.00
2018-01-22T08:34:59.819Z,952.00
2018-01-22T08:35:59.833Z,908.00
2018-01-22T08:36:59.846Z,888.00
2018-01-22T08:37:59.860Z,800.00
2018-01-22T08:38:59.869Z,844.00
2018-01-22T08:39:59.883Z,904.00
2018-01-22T08:40:59.894Z,984.00
2018-01-22T08:41:59.940Z,1068.00
2018-01-22T08:42:59.918Z,1056.00
2018-01-22T08:43:59.928Z,1068.00
2018-01-22T08:44:59.944Z,1004.00
2018-01-22T08:45:59.957Z,1072.00
2018-01-22T08:46:59.984Z,1068.00
2018-01-22T08:47:59.983Z,1000.00
2018-01-22T08:48:59.997Z,976.00
2018-01-22T08:50:00.008Z,1028.00
2018-01-22T08:51:00.018Z,992.00
2018-01-22T08:52:00.037Z,1068.00
2018-01-22T08:53:00.045Z,1016.00
2018-01-22T08:54:00.054Z,964.00
2018-01-22T08:55:00.064Z,1004.00
2018-01-22T08:56:00.079Z,988.00
2018-01-22T08:57:00.091Z,916.00
2018-01-22T08:58:00.103Z,896.00
2018-01-22T08:59:00.117Z,932.00
2018-01-22T09:00:00.128Z,944.00
2018-01-22T09:01:00.145Z,1032.00
2018-01-22T09:02:00.154Z,980.00
2018-01-22T09:03:00.166Z,1100.00
2018-01-22T09:04:00.180Z,1160.00
2018-01-22T09:05:00.192Z,1128.00
2018-01-22T09:06:00.203Z,1352.00
2018-01-22T09:07:00.214Z,1396.00
2018-01-22T09:08:00.224Z,1360.00
2018-01-22T09:09:00.237Z,1348.00
2018-01-22T09:10:00.257Z,1448.00
2018-01-22T09:11:00.270Z,1576.00
2018-01-22T09:12:00.277Z,1860.00
2018-01-22T09:13:00.289Z,1800.00
2018-01-22T09:14:00.304Z,1696.00
2018-01-22T09:15:00.314Z,1852.00
2018-01-22T09:16:00.325Z,1992.00
2018-01-22T09:17:00.339Z,1972.00
2018-01-22T09:18:00.349Z,1960.00
2018-01-22T09:19:00.365Z,2064.00
2018-01-22T09:20:00.380Z,1772.00
2018-01-22T09:21:00.392Z,1908.00
2018-01-22T09:22:00.399Z,1868.00
2018-01-22T09:23:00.432Z,1832.00
2018-01-22T09:24:00.426Z,1832.00
2018-01-22T09:25:00.439Z,1652.00
2018-01-22T09:26:00.453Z,1732.00
2018-01-22T09:27:00.465Z,1736.00
2018-01-22T09:28:00.475Z,1708.00
2018-01-22T09:29:00.489Z,1860.00
2018-01-22T09:30:00.500Z,2088.00
2018-01-22T09:31:00.513Z,2388.00
2018-01-22T09:32:00.538Z,2620.00
2018-01-22T09:33:00.539Z,2212.00
2018-01-22T09:34:00.553Z,1932.00
2018-01-22T09:35:00.564Z,2160.00
2018-01-22T09:36:00.585Z,2480.00
2018-01-22T09:37:00.588Z,2164.00
2018-01-22T09:38:00.600Z,2248.00
2018-01-22T09:39:00.615Z,2388.00
2018-01-22T09:40:00.629Z,2396.00
2018-01-22T09:41:00.640Z,2592.00
2018-01-22T09:42:00.649Z,2984.00
2018-01-22T09:43:00.664Z,3136.00
2018-01-22T09:44:00.675Z,3040.00
2018-01-22T09:45:00.687Z,2624.00
2018-01-22T09:46:00.703Z,2344.00
2018-01-22T09:47:00.716Z,1956.00
2018-01-22T09:48:00.725Z,1668.00
2018-01-22T09:49:00.798Z,1568.00
2018-01-22T09:50:00.767Z,1508.00
2018-01-22T09:51:00.771Z,1424.00
2018-01-22T09:52:00.776Z,1504.00
2018-01-22T09:53:00.789Z,1468.00
2018-01-22T09:54:00.805Z,1440.00
2018-01-22T09:55:00.814Z,1488.00
2018-01-22T09:56:00.827Z,1560.00
2018-01-22T09:57:00.838Z,1620.00
2018-01-22T09:58:00.849Z,1536.00
2018-01-22T09:59:00.870Z,1356.00
2018-01-22T10:00:00.874Z,1188.00
2018-01-22T10:01:00.889Z,1212.00
2018-01-22T10:02:00.903Z,1076.00
2018-01-22T10:03:00.913Z,992.00
2018-01-22T10:04:00.922Z,1016.00
2018-01-22T10:05:00.935Z,1044.00
2018-01-22T10:06:00.961Z,1112.00
2018-01-22T10:07:00.964Z,1184.00
2018-01-22T10:08:00.975Z,1376.00
2018-01-22T10:09:01.003Z,1444.00
2018-01-22T10:10:01.002Z,1352.00
2018-01-22T10:11:01.017Z,1416.00
2018-01-22T10:12:01.024Z,1504.00
2018-01-22T10:13:01.037Z,1504.00
2018-01-22T10:14:01.049Z,1476.00
2018-01-22T10:15:01.074Z,1588.00
2018-01-22T10:16:01.073Z,1600.00
2018-01-22T10:17:01.085Z,1928.00
2018-01-22T10:18:01.100Z,1872.00
2018-01-22T10:19:01.110Z,1628.00
2018-01-22T10:20:01.124Z,1656.00
2018-01-22T10:21:01.135Z,1880.00
2018-01-22T10:22:01.150Z,2200.00
2018-01-22T10:23:01.160Z,2472.00
2018-01-22T10:24:01.221Z,2140.00
2018-01-22T10:25:01.190Z,1960.00
2018-01-22T10:26:01.201Z,2076.00
2018-01-22T10:27:01.214Z,1764.00
2018-01-22T10:28:01.226Z,1496.00
2018-01-22T10:29:01.237Z,1288.00
2018-01-22T10:30:01.250Z,1304.00
2018-01-22T10:31:01.263Z,1416.00
2018-01-22T10:32:01.272Z,1492.00
2018-01-22T10:33:01.288Z,1756.00
2018-01-22T10:34:01.308Z,1900.00
2018-01-22T10:35:01.314Z,1792.00
2018-01-22T10:36:01.327Z,1932.00
2018-01-22T10:37:01.337Z,2004.00
2018-01-22T10:38:01.350Z,2292.00
2018-01-22T10:39:01.360Z,2024.00
2018-01-22T10:40:01.374Z,2184.00
2018-01-22T10:41:01.390Z,1704.00
2018-01-22T10:42:01.400Z,1648.00
2018-01-22T10:43:01.420Z,1688.00
2018-01-22T10:44:01.427Z,2164.00
2018-01-22T10:45:01.441Z,2608.00
2018-01-22T10:46:01.456Z,2728.00
2018-01-22T10:47:01.462Z,2548.00
2018-01-22T10:48:01.475Z,2616.00
2018-01-22T10:49:01.487Z,2812.00
2018-01-22T10:50:01.501Z,3012.00
2018-01-22T10:51:01.518Z,3164.00
2018-01-22T10:52:01.524Z,2852.00
2018-01-22T10:53:01.540Z,2456.00
2018-01-22T10:54:01.550Z,1928.00
2018-01-22T10:55:01.563Z,1668.00
2018-01-22T10:56:01.582Z,1652.00
2018-01-22T10:57:01.591Z,1884.00
2018-01-22T10:58:01.602Z,2140.00
2018-01-22T10:59:01.618Z,2180.00
2018-01-22T11:00:01.626Z,2092.00
2018-01-22T11:01:01.641Z,2284.00
2018-01-22T11:02:01.657Z,1988.00
2018-01-22T11:03:01.668Z,2008.00
2018-01-22T11:04:01.676Z,1972.00
2018-01-22T11:05:01.729Z,1972.00
2018-01-22T11:06:01.705Z,2104.00
2018-01-22T11:07:01.751Z,2484.00
2018-01-22T11:08:01.731Z,2492.00
2018-01-22T11:09:01.744Z,2492.00
2018-01-22T11:10:01.757Z,2668.00
2018-01-22T11:11:01.774Z,2764.00
2018-01-22T11:12:01.784Z,2752.00
2018-01-22T11:13:01.796Z,2508.00
2018-01-22T11:14:01.806Z,2176.00
2018-01-22T11:15:01.822Z,2196.00
2018-01-22T11:16:01.830Z,2312.00
2018-01-22T11:17:01.867Z,1908.00
2018-01-22T11:18:01.875Z,1808.00
2018-01-22T11:19:01.872Z,1884.00
2018-01-22T11:20:01.884Z,1992.00
2018-01-22T11:21:01.893Z,2092.00
2018-01-22T11:22:01.910Z,2228.00
2018-01-22T11:23:01.921Z,2192.00
2018-01-22T11:24:01.937Z,2148.00
2018-01-22T11:25:01.947Z,2088.00
2018-01-22T11:26:01.963Z,2008.00
2018-01-22T11:27:01.973Z,1964.00
2018-01-22T11:28:01.987Z,2052.00
2018-01-22T11:29:01.998Z,2340.00
2018-01-22T11:30:02.013Z,2284.00
2018-01-22T11:31:02.028Z,2280.00
2018-01-22T11:32:02.036Z,2284.00
2018-01-22T11:33:02.052Z,2388.00
2018-01-22T11:34:02.062Z,2580.00
2018-01-22T11:35:02.081Z,2688.00
2018-01-22T11:36:02.091Z,2828.00
2018-01-22T11:37:02.103Z,2752.00
2018-01-22T11:38:02.116Z,2632.00
2018-01-22T11:39:02.127Z,2696.00
2018-01-22T11:40:02.140Z,2740.00
2018-01-22T11:41:02.156Z,2568.00
2018-01-22T11:42:02.171Z,2580.00
2018-01-22T11:43:02.180Z,2580.00
2018-01-22T11:44:02.193Z,2504.00
2018-01-22T11:45:02.207Z,2488.00
2018-01-22T11:46:02.220Z,2516.00
2018-01-22T11:47:02.235Z,2540.00
2018-01-22T11:48:02.249Z,2596.00
2018-01-22T11:49:02.259Z,2632.00
2018-01-22T11:50:02.274Z,2668.00
2018-01-22T11:51:02.286Z,2668.00
2018-01-22T11:52:02.298Z,2704.00
2018-01-22T11:53:02.313Z,2784.00
2018-01-22T11:54:02.323Z,3120.00
2018-01-22T11:55:02.336Z,3460.00
2018-01-22T11:56:02.347Z,3384.00
2018-01-22T11:57:02.363Z,3236.00
2018-01-22T11:58:02.380Z,3344.00
2018-01-22T11:59:02.387Z,3320.00
2018-01-22T12:00:02.403Z,2868.00
2018-01-22T12:01:02.414Z,2632.00
2018-01-22T12:02:02.430Z,2636.00
2018-01-22T12:03:02.441Z,2708.00
2018-01-22T12:04:02.456Z,2712.00
2018-01-22T12:05:02.467Z,2900.00
2018-01-22T12:06:02.482Z,2944.00
2018-01-22T12:07:02.494Z,2852.00
2018-01-22T12:08:02.507Z,2744.00
2018-01-22T12:09:02.578Z,2616.00
2018-01-22T12:10:02.539Z,2504.00
2018-01-22T12:11:02.545Z,2456.00
2018-01-22T12:12:02.556Z,2596.00
2018-01-22T12:13:02.574Z,2708.00
2018-01-22T12:14:02.586Z,2696.00
2018-01-22T12:15:02.601Z,2772.00
2018-01-22T12:16:02.615Z,2756.00
2018-01-22T12:17:02.627Z,2756.00
2018-01-22T12:18:02.641Z,2728.00
2018-01-22T12:19:02.653Z,2536.00
2018-01-22T12:20:02.665Z,2564.00
2018-01-22T12:21:02.679Z,2632.00
2018-01-22T12:22:02.690Z,2548.00
2018-01-22T12:23:02.734Z,2380.00
2018-01-22T12:24:02.718Z,2352.00
2018-01-22T12:25:02.730Z,2444.00
2018-01-22T12:26:02.742Z,2672.00
2018-01-22T12:27:02.760Z,2740.00
2018-01-22T12:28:02.769Z,2728.00
2018-01-22T12:29:02.782Z,2752.00
2018-01-22T12:30:02.797Z,2704.00
2018-01-22T12:31:02.810Z,2668.00
2018-01-22T12:32:02.824Z,2632.00
2018-01-22T12:33:02.836Z,2628.00
2018-01-22T12:34:02.851Z,2692.00
2018-01-22T12:35:02.865Z,2768.00
2018-01-22T12:36:02.875Z,2784.00
2018-01-22T12:37:02.890Z,2800.00
2018-01-22T12:38:02.906Z,2804.00
2018-01-22T12:39:02.919Z,2796.00
2018-01-22T12:40:02.933Z,3000.00
2018-01-22T12:41:02.946Z,2908.00
2018-01-22T12:42:02.957Z,2636.00
2018-01-22T12:43:02.971Z,2588.00
2018-01-22T12:44:02.987Z,2704.00
2018-01-22T12:45:03.000Z,2700.00
2018-01-22T12:46:03.013Z,2728.00
2018-01-22T12:47:03.027Z,2744.00
2018-01-22T12:48:03.039Z,2956.00